sensor_id;sensor_type;location;lat;lon;timestamp;temperature;humidity
72905;DHT22;61048;52.162;4.516;2023-11-19T00:00:30;16.90;71.00
72905;DHT22;61048;52.162;4.516;2023-11-19T00:02:57;16.90;70.80
72905;DHT22;61048;52.162;4.516;2023-11-19T00:05:24;16.90;70.90
72905;DHT22;61048;52.162;4.516;2023-11-19T00:07:52;16.90;70.90
72905;DHT22;61048;52.162;4.516;2023-11-19T00:10:19;16.90;70.90
72905;DHT22;61048;52.162;4.516;2023-11-19T00:12:48;16.90;70.80
72905;DHT22;61048;52.162;4.516;2023-11-19T00:15:17;16.90;70.80
72905;DHT22;61048;52.162;4.516;2023-11-19T00:17:46;16.90;70.90
72905;DHT22;61048;52.162;4.516;2023-11-19T00:20:13;16.90;71.00
72905;DHT22;61048;52.162;4.516;2023-11-19T00:22:40;16.90;70.90
72905;DHT22;61048;52.162;4.516;2023-11-19T00:25:08;16.90;71.00
72905;DHT22;61048;52.162;4.516;2023-11-19T00:27:35;16.90;70.80
72905;DHT22;61048;52.162;4.516;2023-11-19T00:30:03;16.90;70.70
72905;DHT22;61048;52.162;4.516;2023-11-19T00:32:32;16.90;70.80
72905;DHT22;61048;52.162;4.516;2023-11-19T00:34:59;16.90;70.80
72905;DHT22;61048;52.162;4.516;2023-11-19T00:37:26;16.90;70.90
72905;DHT22;61048;52.162;4.516;2023-11-19T00:39:53;17.00;70.80
72905;DHT22;61048;52.162;4.516;2023-11-19T00:42:21;16.90;70.70
72905;DHT22;61048;52.162;4.516;2023-11-19T00:44:49;16.90;70.70
72905;DHT22;61048;52.162;4.516;2023-11-19T00:47:16;16.90;71.00
72905;DHT22;61048;52.162;4.516;2023-11-19T00:49:47;16.90;71.00
72905;DHT22;61048;52.162;4.516;2023-11-19T00:52:15;17.00;71.00
72905;DHT22;61048;52.162;4.516;2023-11-19T00:54:42;17.00;71.00
72905;DHT22;61048;52.162;4.516;2023-11-19T00:57:10;17.00;71.10
72905;DHT22;61048;52.162;4.516;2023-11-19T00:59:36;17.00;71.00
72905;DHT22;61048;52.162;4.516;2023-11-19T01:02:04;17.00;71.00
72905;DHT22;61048;52.162;4.516;2023-11-19T01:04:33;17.00;71.00
72905;DHT22;61048;52.162;4.516;2023-11-19T01:07:03;17.00;71.10
72905;DHT22;61048;52.162;4.516;2023-11-19T01:09:30;17.00;71.10
72905;DHT22;61048;52.162;4.516;2023-11-19T01:12:00;17.00;71.10
72905;DHT22;61048;52.162;4.516;2023-11-19T01:14:27;17.00;71.00
72905;DHT22;61048;52.162;4.516;2023-11-19T01:16:53;17.00;71.10
72905;DHT22;61048;52.162;4.516;2023-11-19T01:19:21;17.00;71.10
72905;DHT22;61048;52.162;4.516;2023-11-19T01:21:49;17.00;71.10
72905;DHT22;61048;52.162;4.516;2023-11-19T01:24:17;17.00;71.30
72905;DHT22;61048;52.162;4.516;2023-11-19T01:26:44;17.00;71.20
72905;DHT22;61048;52.162;4.516;2023-11-19T01:29:12;17.00;71.30
72905;DHT22;61048;52.162;4.516;2023-11-19T01:31:40;17.00;71.30
72905;DHT22;61048;52.162;4.516;2023-11-19T01:34:07;17.10;71.30
72905;DHT22;61048;52.162;4.516;2023-11-19T01:36:34;17.10;71.40
72905;DHT22;61048;52.162;4.516;2023-11-19T01:39:01;17.10;71.40
72905;DHT22;61048;52.162;4.516;2023-11-19T01:41:34;17.10;71.30
72905;DHT22;61048;52.162;4.516;2023-11-19T01:44:01;17.10;71.30
72905;DHT22;61048;52.162;4.516;2023-11-19T01:46:28;17.10;71.30
72905;DHT22;61048;52.162;4.516;2023-11-19T01:48:55;17.10;71.40
72905;DHT22;61048;52.162;4.516;2023-11-19T01:51:26;17.10;71.30
72905;DHT22;61048;52.162;4.516;2023-11-19T01:53:53;17.10;71.20
72905;DHT22;61048;52.162;4.516;2023-11-19T01:56:21;17.10;71.20
72905;DHT22;61048;52.162;4.516;2023-11-19T01:58:50;17.10;71.20
72905;DHT22;61048;52.162;4.516;2023-11-19T02:01:17;17.10;71.20
72905;DHT22;61048;52.162;4.516;2023-11-19T02:03:45;17.10;71.30
72905;DHT22;61048;52.162;4.516;2023-11-19T02:06:13;17.10;71.20
72905;DHT22;61048;52.162;4.516;2023-11-19T02:08:39;17.10;71.10
72905;DHT22;61048;52.162;4.516;2023-11-19T02:11:07;17.10;71.10
72905;DHT22;61048;52.162;4.516;2023-11-19T02:13:34;17.10;71.00
72905;DHT22;61048;52.162;4.516;2023-11-19T02:16:04;17.10;71.10
72905;DHT22;61048;52.162;4.516;2023-11-19T02:18:32;17.10;71.00
72905;DHT22;61048;52.162;4.516;2023-11-19T02:21:00;17.10;71.00
72905;DHT22;61048;52.162;4.516;2023-11-19T02:23:27;17.10;71.10
72905;DHT22;61048;52.162;4.516;2023-11-19T02:26:12;17.10;71.00
72905;DHT22;61048;52.162;4.516;2023-11-19T02:28:42;17.20;71.00
72905;DHT22;61048;52.162;4.516;2023-11-19T02:31:09;17.20;71.00
72905;DHT22;61048;52.162;4.516;2023-11-19T02:33:37;17.20;71.00
72905;DHT22;61048;52.162;4.516;2023-11-19T02:36:04;17.20;71.00
72905;DHT22;61048;52.162;4.516;2023-11-19T02:38:32;17.20;70.90
72905;DHT22;61048;52.162;4.516;2023-11-19T02:41:02;17.20;70.90
72905;DHT22;61048;52.162;4.516;2023-11-19T02:43:30;17.20;70.90
72905;DHT22;61048;52.162;4.516;2023-11-19T02:46:00;17.20;70.80
72905;DHT22;61048;52.162;4.516;2023-11-19T02:48:27;17.20;70.90
72905;DHT22;61048;52.162;4.516;2023-11-19T02:50:54;17.20;70.80
72905;DHT22;61048;52.162;4.516;2023-11-19T02:53:23;17.20;70.80
72905;DHT22;61048;52.162;4.516;2023-11-19T02:55:53;17.20;70.90
72905;DHT22;61048;52.162;4.516;2023-11-19T02:58:26;17.20;71.00
72905;DHT22;61048;52.162;4.516;2023-11-19T03:00:54;17.20;71.00
72905;DHT22;61048;52.162;4.516;2023-11-19T03:03:26;17.20;70.90
72905;DHT22;61048;52.162;4.516;2023-11-19T03:06:04;17.20;70.90
72905;DHT22;61048;52.162;4.516;2023-11-19T03:08:31;17.20;70.90
72905;DHT22;61048;52.162;4.516;2023-11-19T03:10:57;17.20;70.80
72905;DHT22;61048;52.162;4.516;2023-11-19T03:13:24;17.20;70.70
72905;DHT22;61048;52.162;4.516;2023-11-19T03:15:52;17.20;70.70
72905;DHT22;61048;52.162;4.516;2023-11-19T03:18:19;17.20;70.70
72905;DHT22;61048;52.162;4.516;2023-11-19T03:20:47;17.20;70.60
72905;DHT22;61048;52.162;4.516;2023-11-19T03:23:15;17.20;70.60
72905;DHT22;61048;52.162;4.516;2023-11-19T03:25:42;17.20;70.50
72905;DHT22;61048;52.162;4.516;2023-11-19T03:28:09;17.10;70.60
72905;DHT22;61048;52.162;4.516;2023-11-19T03:30:36;17.10;70.40
72905;DHT22;61048;52.162;4.516;2023-11-19T03:33:03;17.20;70.50
72905;DHT22;61048;52.162;4.516;2023-11-19T03:35:31;17.20;70.40
72905;DHT22;61048;52.162;4.516;2023-11-19T03:38:00;17.20;70.40
72905;DHT22;61048;52.162;4.516;2023-11-19T03:40:28;17.20;70.30
72905;DHT22;61048;52.162;4.516;2023-11-19T03:42:56;17.10;70.30
72905;DHT22;61048;52.162;4.516;2023-11-19T03:45:22;17.10;70.40
72905;DHT22;61048;52.162;4.516;2023-11-19T03:47:50;17.20;70.40
72905;DHT22;61048;52.162;4.516;2023-11-19T03:50:17;17.10;70.40
72905;DHT22;61048;52.162;4.516;2023-11-19T03:52:45;17.10;70.30
72905;DHT22;61048;52.162;4.516;2023-11-19T03:55:14;17.20;70.40
72905;DHT22;61048;52.162;4.516;2023-11-19T03:57:41;17.20;70.30
72905;DHT22;61048;52.162;4.516;2023-11-19T04:00:07;17.10;70.40
72905;DHT22;61048;52.162;4.516;2023-11-19T04:02:35;17.20;70.50
72905;DHT22;61048;52.162;4.516;2023-11-19T04:05:02;17.10;70.50
72905;DHT22;61048;52.162;4.516;2023-11-19T04:07:30;17.20;70.40
72905;DHT22;61048;52.162;4.516;2023-11-19T04:09:57;17.20;70.30
72905;DHT22;61048;52.162;4.516;2023-11-19T04:12:25;17.20;70.30
72905;DHT22;61048;52.162;4.516;2023-11-19T04:14:52;17.10;70.30
72905;DHT22;61048;52.162;4.516;2023-11-19T04:17:19;17.20;70.40
72905;DHT22;61048;52.162;4.516;2023-11-19T04:19:46;17.10;70.30
72905;DHT22;61048;52.162;4.516;2023-11-19T04:22:13;17.20;70.40
72905;DHT22;61048;52.162;4.516;2023-11-19T04:24:40;17.10;70.40
72905;DHT22;61048;52.162;4.516;2023-11-19T04:27:09;17.10;70.20
72905;DHT22;61048;52.162;4.516;2023-11-19T04:29:37;17.10;70.30
72905;DHT22;61048;52.162;4.516;2023-11-19T04:32:05;17.10;70.20
72905;DHT22;61048;52.162;4.516;2023-11-19T04:34:32;17.10;70.30
72905;DHT22;61048;52.162;4.516;2023-11-19T04:36:59;17.10;70.20
72905;DHT22;61048;52.162;4.516;2023-11-19T04:39:29;17.10;70.20
72905;DHT22;61048;52.162;4.516;2023-11-19T04:41:56;17.10;70.00
72905;DHT22;61048;52.162;4.516;2023-11-19T04:44:22;17.10;70.00
72905;DHT22;61048;52.162;4.516;2023-11-19T04:46:51;17.10;70.00
72905;DHT22;61048;52.162;4.516;2023-11-19T04:49:18;17.10;70.00
72905;DHT22;61048;52.162;4.516;2023-11-19T04:51:45;17.20;70.00
72905;DHT22;61048;52.162;4.516;2023-11-19T04:54:12;17.10;70.00
72905;DHT22;61048;52.162;4.516;2023-11-19T04:56:40;17.10;69.90
72905;DHT22;61048;52.162;4.516;2023-11-19T04:59:07;17.10;69.90
72905;DHT22;61048;52.162;4.516;2023-11-19T05:01:35;17.10;69.80
72905;DHT22;61048;52.162;4.516;2023-11-19T05:04:03;17.10;69.80
72905;DHT22;61048;52.162;4.516;2023-11-19T05:06:30;17.10;69.80
72905;DHT22;61048;52.162;4.516;2023-11-19T05:08:59;17.10;69.80
72905;DHT22;61048;52.162;4.516;2023-11-19T05:11:29;17.10;69.70
72905;DHT22;61048;52.162;4.516;2023-11-19T05:13:56;17.10;69.60
72905;DHT22;61048;52.162;4.516;2023-11-19T05:16:23;17.10;69.60
72905;DHT22;61048;52.162;4.516;2023-11-19T05:18:50;17.10;69.60
72905;DHT22;61048;52.162;4.516;2023-11-19T05:21:18;17.10;69.60
72905;DHT22;61048;52.162;4.516;2023-11-19T05:23:45;17.10;69.50
72905;DHT22;61048;52.162;4.516;2023-11-19T05:26:17;17.10;69.60
72905;DHT22;61048;52.162;4.516;2023-11-19T05:28:45;17.10;69.50
72905;DHT22;61048;52.162;4.516;2023-11-19T05:31:12;17.10;69.50
72905;DHT22;61048;52.162;4.516;2023-11-19T05:33:39;17.10;69.40
72905;DHT22;61048;52.162;4.516;2023-11-19T05:36:07;17.10;69.50
72905;DHT22;61048;52.162;4.516;2023-11-19T05:38:36;17.10;69.50
72905;DHT22;61048;52.162;4.516;2023-11-19T05:41:03;17.10;69.50
72905;DHT22;61048;52.162;4.516;2023-11-19T05:43:30;17.10;69.40
72905;DHT22;61048;52.162;4.516;2023-11-19T05:45:57;17.10;69.40
72905;DHT22;61048;52.162;4.516;2023-11-19T05:48:25;17.10;69.40
72905;DHT22;61048;52.162;4.516;2023-11-19T05:50:52;17.10;69.40
72905;DHT22;61048;52.162;4.516;2023-11-19T05:53:20;17.10;69.40
72905;DHT22;61048;52.162;4.516;2023-11-19T05:55:49;17.10;69.40
72905;DHT22;61048;52.162;4.516;2023-11-19T05:58:23;17.10;69.40
72905;DHT22;61048;52.162;4.516;2023-11-19T06:00:51;17.10;69.50
72905;DHT22;61048;52.162;4.516;2023-11-19T06:03:18;17.10;69.40
72905;DHT22;61048;52.162;4.516;2023-11-19T06:05:45;17.10;69.40
72905;DHT22;61048;52.162;4.516;2023-11-19T06:08:12;17.10;69.40
72905;DHT22;61048;52.162;4.516;2023-11-19T06:10:40;17.10;69.40
72905;DHT22;61048;52.162;4.516;2023-11-19T06:13:08;17.10;69.40
72905;DHT22;61048;52.162;4.516;2023-11-19T06:15:37;17.10;69.40
72905;DHT22;61048;52.162;4.516;2023-11-19T06:18:03;17.10;69.40
72905;DHT22;61048;52.162;4.516;2023-11-19T06:20:32;17.10;69.50
72905;DHT22;61048;52.162;4.516;2023-11-19T06:22:59;17.10;69.40
72905;DHT22;61048;52.162;4.516;2023-11-19T06:25:27;17.10;69.40
72905;DHT22;61048;52.162;4.516;2023-11-19T06:27:54;17.10;69.30
72905;DHT22;61048;52.162;4.516;2023-11-19T06:30:23;17.10;69.30
72905;DHT22;61048;52.162;4.516;2023-11-19T06:32:50;17.10;69.30
72905;DHT22;61048;52.162;4.516;2023-11-19T06:35:17;17.10;69.30
72905;DHT22;61048;52.162;4.516;2023-11-19T06:37:44;17.10;69.30
72905;DHT22;61048;52.162;4.516;2023-11-19T06:40:11;17.10;69.30
72905;DHT22;61048;52.162;4.516;2023-11-19T06:42:38;17.10;69.30
72905;DHT22;61048;52.162;4.516;2023-11-19T06:45:06;17.10;69.20
72905;DHT22;61048;52.162;4.516;2023-11-19T06:47:35;17.10;69.20
72905;DHT22;61048;52.162;4.516;2023-11-19T06:50:01;17.10;69.20
72905;DHT22;61048;52.162;4.516;2023-11-19T06:52:31;17.10;69.10
72905;DHT22;61048;52.162;4.516;2023-11-19T06:54:58;17.10;69.10
72905;DHT22;61048;52.162;4.516;2023-11-19T06:57:25;17.10;69.00
72905;DHT22;61048;52.162;4.516;2023-11-19T06:59:51;17.10;69.10
72905;DHT22;61048;52.162;4.516;2023-11-19T07:02:18;17.10;69.10
72905;DHT22;61048;52.162;4.516;2023-11-19T07:04:47;17.10;69.10
72905;DHT22;61048;52.162;4.516;2023-11-19T07:07:13;17.10;69.00
72905;DHT22;61048;52.162;4.516;2023-11-19T07:09:41;17.10;69.10
72905;DHT22;61048;52.162;4.516;2023-11-19T07:12:08;17.10;69.00
72905;DHT22;61048;52.162;4.516;2023-11-19T07:14:35;17.10;69.10
72905;DHT22;61048;52.162;4.516;2023-11-19T07:17:02;17.10;69.10
72905;DHT22;61048;52.162;4.516;2023-11-19T07:19:29;17.10;69.00
72905;DHT22;61048;52.162;4.516;2023-11-19T07:21:57;17.10;69.00
72905;DHT22;61048;52.162;4.516;2023-11-19T07:24:24;17.10;69.00
72905;DHT22;61048;52.162;4.516;2023-11-19T07:26:53;17.10;69.00
72905;DHT22;61048;52.162;4.516;2023-11-19T07:29:20;17.10;69.00
72905;DHT22;61048;52.162;4.516;2023-11-19T07:31:49;17.10;68.90
72905;DHT22;61048;52.162;4.516;2023-11-19T07:34:16;17.10;68.90
72905;DHT22;61048;52.162;4.516;2023-11-19T07:36:43;17.10;68.90
72905;DHT22;61048;52.162;4.516;2023-11-19T07:39:11;17.10;69.00
72905;DHT22;61048;52.162;4.516;2023-11-19T07:41:38;17.10;69.00
72905;DHT22;61048;52.162;4.516;2023-11-19T07:44:05;17.10;69.00
72905;DHT22;61048;52.162;4.516;2023-11-19T07:46:32;17.10;69.00
72905;DHT22;61048;52.162;4.516;2023-11-19T07:48:59;17.10;69.00
72905;DHT22;61048;52.162;4.516;2023-11-19T07:51:28;17.10;69.00
72905;DHT22;61048;52.162;4.516;2023-11-19T07:53:55;17.10;69.00
72905;DHT22;61048;52.162;4.516;2023-11-19T07:56:23;17.10;68.90
72905;DHT22;61048;52.162;4.516;2023-11-19T07:58:50;17.10;68.90
72905;DHT22;61048;52.162;4.516;2023-11-19T08:01:17;17.10;68.90
72905;DHT22;61048;52.162;4.516;2023-11-19T08:03:44;17.10;68.80
72905;DHT22;61048;52.162;4.516;2023-11-19T08:06:11;17.10;68.80
72905;DHT22;61048;52.162;4.516;2023-11-19T08:08:38;17.10;68.80
72905;DHT22;61048;52.162;4.516;2023-11-19T08:11:05;17.10;68.90
72905;DHT22;61048;52.162;4.516;2023-11-19T08:13:34;17.10;68.70
72905;DHT22;61048;52.162;4.516;2023-11-19T08:16:01;17.10;68.60
72905;DHT22;61048;52.162;4.516;2023-11-19T08:18:27;17.10;68.70
72905;DHT22;61048;52.162;4.516;2023-11-19T08:20:54;17.10;68.60
72905;DHT22;61048;52.162;4.516;2023-11-19T08:23:23;17.10;68.50
72905;DHT22;61048;52.162;4.516;2023-11-19T08:25:51;17.10;68.60
72905;DHT22;61048;52.162;4.516;2023-11-19T08:28:18;17.20;68.80
72905;DHT22;61048;52.162;4.516;2023-11-19T08:30:46;17.20;70.30
72905;DHT22;61048;52.162;4.516;2023-11-19T08:33:13;17.20;69.80
72905;DHT22;61048;52.162;4.516;2023-11-19T08:35:40;17.20;69.40
72905;DHT22;61048;52.162;4.516;2023-11-19T08:38:07;17.20;69.40
72905;DHT22;61048;52.162;4.516;2023-11-19T08:40:34;17.20;69.50
72905;DHT22;61048;52.162;4.516;2023-11-19T08:43:01;17.20;69.40
72905;DHT22;61048;52.162;4.516;2023-11-19T08:45:28;17.20;69.60
72905;DHT22;61048;52.162;4.516;2023-11-19T08:47:56;17.20;69.50
72905;DHT22;61048;52.162;4.516;2023-11-19T08:50:23;17.20;69.00
72905;DHT22;61048;52.162;4.516;2023-11-19T08:52:50;17.20;69.00
72905;DHT22;61048;52.162;4.516;2023-11-19T08:55:17;17.20;69.00
72905;DHT22;61048;52.162;4.516;2023-11-19T08:57:44;17.20;68.90
72905;DHT22;61048;52.162;4.516;2023-11-19T09:00:12;17.20;68.90
72905;DHT22;61048;52.162;4.516;2023-11-19T09:02:40;17.20;68.70
72905;DHT22;61048;52.162;4.516;2023-11-19T09:05:10;17.20;68.80
72905;DHT22;61048;52.162;4.516;2023-11-19T09:07:37;17.20;68.60
72905;DHT22;61048;52.162;4.516;2023-11-19T09:10:05;17.20;68.60
72905;DHT22;61048;52.162;4.516;2023-11-19T09:12:34;17.20;68.50
72905;DHT22;61048;52.162;4.516;2023-11-19T09:15:01;17.20;68.50
72905;DHT22;61048;52.162;4.516;2023-11-19T09:17:28;17.30;68.50
72905;DHT22;61048;52.162;4.516;2023-11-19T09:19:55;17.30;68.60
72905;DHT22;61048;52.162;4.516;2023-11-19T09:22:23;17.30;68.70
72905;DHT22;61048;52.162;4.516;2023-11-19T09:24:50;17.30;69.20
72905;DHT22;61048;52.162;4.516;2023-11-19T09:27:17;17.30;69.20
72905;DHT22;61048;52.162;4.516;2023-11-19T09:29:44;17.30;69.20
72905;DHT22;61048;52.162;4.516;2023-11-19T09:32:12;17.30;69.40
72905;DHT22;61048;52.162;4.516;2023-11-19T09:34:39;17.30;69.40
72905;DHT22;61048;52.162;4.516;2023-11-19T09:37:05;17.30;69.40
72905;DHT22;61048;52.162;4.516;2023-11-19T09:39:34;17.40;69.30
72905;DHT22;61048;52.162;4.516;2023-11-19T09:42:01;17.40;69.40
72905;DHT22;61048;52.162;4.516;2023-11-19T09:44:28;17.40;69.30
72905;DHT22;61048;52.162;4.516;2023-11-19T09:46:56;17.30;69.20
72905;DHT22;61048;52.162;4.516;2023-11-19T09:49:26;17.30;69.20
72905;DHT22;61048;52.162;4.516;2023-11-19T09:51:54;17.30;69.00
72905;DHT22;61048;52.162;4.516;2023-11-19T09:54:21;17.30;69.00
72905;DHT22;61048;52.162;4.516;2023-11-19T09:56:49;17.30;68.90
72905;DHT22;61048;52.162;4.516;2023-11-19T09:59:16;17.30;68.90
72905;DHT22;61048;52.162;4.516;2023-11-19T10:01:45;17.30;68.80
72905;DHT22;61048;52.162;4.516;2023-11-19T10:04:15;17.30;68.60
72905;DHT22;61048;52.162;4.516;2023-11-19T10:06:43;17.30;68.40
72905;DHT22;61048;52.162;4.516;2023-11-19T10:09:12;17.30;68.30
72905;DHT22;61048;52.162;4.516;2023-11-19T10:11:40;17.30;68.40
72905;DHT22;61048;52.162;4.516;2023-11-19T10:14:09;17.30;68.40
72905;DHT22;61048;52.162;4.516;2023-11-19T10:16:38;17.30;68.30
72905;DHT22;61048;52.162;4.516;2023-11-19T10:19:05;17.30;68.40
72905;DHT22;61048;52.162;4.516;2023-11-19T10:21:32;17.30;68.20
72905;DHT22;61048;52.162;4.516;2023-11-19T10:24:00;17.30;68.10
72905;DHT22;61048;52.162;4.516;2023-11-19T10:26:27;17.30;67.90
72905;DHT22;61048;52.162;4.516;2023-11-19T10:28:56;17.30;67.80
72905;DHT22;61048;52.162;4.516;2023-11-19T10:31:24;17.20;67.50
72905;DHT22;61048;52.162;4.516;2023-11-19T10:33:52;17.20;67.40
72905;DHT22;61048;52.162;4.516;2023-11-19T10:36:20;17.20;67.30
72905;DHT22;61048;52.162;4.516;2023-11-19T10:38:53;17.20;67.10
72905;DHT22;61048;52.162;4.516;2023-11-19T10:41:27;17.20;67.00
72905;DHT22;61048;52.162;4.516;2023-11-19T10:43:54;17.20;66.80
72905;DHT22;61048;52.162;4.516;2023-11-19T10:46:21;17.20;66.70
72905;DHT22;61048;52.162;4.516;2023-11-19T10:48:50;17.20;66.70
72905;DHT22;61048;52.162;4.516;2023-11-19T10:51:19;17.20;66.60
72905;DHT22;61048;52.162;4.516;2023-11-19T10:53:49;17.20;66.70
72905;DHT22;61048;52.162;4.516;2023-11-19T10:56:17;17.20;66.70
72905;DHT22;61048;52.162;4.516;2023-11-19T10:58:49;17.20;66.60
72905;DHT22;61048;52.162;4.516;2023-11-19T11:01:19;17.20;66.50
72905;DHT22;61048;52.162;4.516;2023-11-19T11:03:47;17.20;66.10
72905;DHT22;61048;52.162;4.516;2023-11-19T11:06:18;17.20;66.20
72905;DHT22;61048;52.162;4.516;2023-11-19T11:08:46;17.20;66.00
72905;DHT22;61048;52.162;4.516;2023-11-19T11:11:15;17.20;65.90
72905;DHT22;61048;52.162;4.516;2023-11-19T11:13:43;17.20;65.90
72905;DHT22;61048;52.162;4.516;2023-11-19T11:16:11;17.10;65.80
72905;DHT22;61048;52.162;4.516;2023-11-19T11:18:37;17.20;65.80
72905;DHT22;61048;52.162;4.516;2023-11-19T11:21:07;17.10;65.50
72905;DHT22;61048;52.162;4.516;2023-11-19T11:23:56;17.10;65.40
72905;DHT22;61048;52.162;4.516;2023-11-19T11:26:53;17.20;65.30
72905;DHT22;61048;52.162;4.516;2023-11-19T11:29:31;17.10;65.20
72905;DHT22;61048;52.162;4.516;2023-11-19T11:32:08;17.10;65.30
72905;DHT22;61048;52.162;4.516;2023-11-19T11:34:48;17.10;65.30
72905;DHT22;61048;52.162;4.516;2023-11-19T11:37:19;17.10;65.20
72905;DHT22;61048;52.162;4.516;2023-11-19T11:39:50;17.10;65.10
72905;DHT22;61048;52.162;4.516;2023-11-19T11:42:34;17.10;65.10
72905;DHT22;61048;52.162;4.516;2023-11-19T11:45:02;17.10;65.10
72905;DHT22;61048;52.162;4.516;2023-11-19T11:48:10;17.10;65.10
72905;DHT22;61048;52.162;4.516;2023-11-19T11:50:47;17.10;65.10
72905;DHT22;61048;52.162;4.516;2023-11-19T11:53:19;17.10;64.80
72905;DHT22;61048;52.162;4.516;2023-11-19T11:55:59;17.10;64.90
72905;DHT22;61048;52.162;4.516;2023-11-19T11:58:35;17.10;64.80
72905;DHT22;61048;52.162;4.516;2023-11-19T12:01:04;17.10;64.80
72905;DHT22;61048;52.162;4.516;2023-11-19T12:03:34;17.10;64.80
72905;DHT22;61048;52.162;4.516;2023-11-19T12:06:04;17.10;64.70
72905;DHT22;61048;52.162;4.516;2023-11-19T12:08:34;17.10;64.80
72905;DHT22;61048;52.162;4.516;2023-11-19T12:11:03;17.10;64.90
72905;DHT22;61048;52.162;4.516;2023-11-19T12:13:54;17.10;64.80
72905;DHT22;61048;52.162;4.516;2023-11-19T12:16:24;17.10;64.80
72905;DHT22;61048;52.162;4.516;2023-11-19T12:18:53;17.10;64.80
72905;DHT22;61048;52.162;4.516;2023-11-19T12:21:30;17.10;64.80
72905;DHT22;61048;52.162;4.516;2023-11-19T12:23:59;17.10;64.70
72905;DHT22;61048;52.162;4.516;2023-11-19T12:26:37;17.10;64.70
72905;DHT22;61048;52.162;4.516;2023-11-19T12:29:05;17.10;64.60
72905;DHT22;61048;52.162;4.516;2023-11-19T12:31:32;17.10;64.70
72905;DHT22;61048;52.162;4.516;2023-11-19T12:34:09;17.10;64.50
72905;DHT22;61048;52.162;4.516;2023-11-19T12:36:41;17.10;64.50
72905;DHT22;61048;52.162;4.516;2023-11-19T12:39:09;17.10;64.50
72905;DHT22;61048;52.162;4.516;2023-11-19T12:41:57;17.10;64.60
72905;DHT22;61048;52.162;4.516;2023-11-19T12:44:25;17.10;64.70
72905;DHT22;61048;52.162;4.516;2023-11-19T12:47:02;17.10;64.70
72905;DHT22;61048;52.162;4.516;2023-11-19T12:49:29;17.00;64.70
72905;DHT22;61048;52.162;4.516;2023-11-19T12:51:56;17.00;64.70
72905;DHT22;61048;52.162;4.516;2023-11-19T12:54:32;17.00;64.70
72905;DHT22;61048;52.162;4.516;2023-11-19T12:57:03;17.00;64.80
72905;DHT22;61048;52.162;4.516;2023-11-19T12:59:30;17.00;64.80
72905;DHT22;61048;52.162;4.516;2023-11-19T13:01:57;17.00;64.70
72905;DHT22;61048;52.162;4.516;2023-11-19T13:04:28;17.00;64.90
72905;DHT22;61048;52.162;4.516;2023-11-19T13:06:56;17.00;64.90
72905;DHT22;61048;52.162;4.516;2023-11-19T13:09:23;17.00;65.10
72905;DHT22;61048;52.162;4.516;2023-11-19T13:11:51;17.00;65.20
72905;DHT22;61048;52.162;4.516;2023-11-19T13:14:20;17.00;65.20
72905;DHT22;61048;52.162;4.516;2023-11-19T13:16:47;17.10;65.20
72905;DHT22;61048;52.162;4.516;2023-11-19T13:19:14;17.10;65.10
72905;DHT22;61048;52.162;4.516;2023-11-19T13:21:42;17.10;64.90
72905;DHT22;61048;52.162;4.516;2023-11-19T13:24:11;17.10;64.70
72905;DHT22;61048;52.162;4.516;2023-11-19T13:26:38;17.20;64.80
72905;DHT22;61048;52.162;4.516;2023-11-19T13:29:05;17.20;64.80
72905;DHT22;61048;52.162;4.516;2023-11-19T13:31:33;17.30;64.90
72905;DHT22;61048;52.162;4.516;2023-11-19T13:34:00;17.30;64.20
72905;DHT22;61048;52.162;4.516;2023-11-19T13:36:27;17.30;64.20
72905;DHT22;61048;52.162;4.516;2023-11-19T13:38:54;17.30;64.20
72905;DHT22;61048;52.162;4.516;2023-11-19T13:41:24;17.30;64.00
72905;DHT22;61048;52.162;4.516;2023-11-19T13:43:51;17.30;64.00
72905;DHT22;61048;52.162;4.516;2023-11-19T13:46:18;17.30;63.90
72905;DHT22;61048;52.162;4.516;2023-11-19T13:48:47;17.20;63.70
72905;DHT22;61048;52.162;4.516;2023-11-19T13:51:15;17.20;63.70
72905;DHT22;61048;52.162;4.516;2023-11-19T13:53:42;17.20;63.80
72905;DHT22;61048;52.162;4.516;2023-11-19T13:56:09;17.30;63.80
72905;DHT22;61048;52.162;4.516;2023-11-19T13:58:36;17.20;63.90
72905;DHT22;61048;52.162;4.516;2023-11-19T14:01:04;17.30;63.90
72905;DHT22;61048;52.162;4.516;2023-11-19T14:03:31;17.20;63.90
72905;DHT22;61048;52.162;4.516;2023-11-19T14:06:00;17.20;63.90
72905;DHT22;61048;52.162;4.516;2023-11-19T14:08:28;17.20;64.00
72905;DHT22;61048;52.162;4.516;2023-11-19T14:10:54;17.20;64.00
72905;DHT22;61048;52.162;4.516;2023-11-19T14:13:22;17.20;64.00
72905;DHT22;61048;52.162;4.516;2023-11-19T14:15:49;17.20;63.90
72905;DHT22;61048;52.162;4.516;2023-11-19T14:18:16;17.20;64.00
72905;DHT22;61048;52.162;4.516;2023-11-19T14:20:43;17.20;64.00
72905;DHT22;61048;52.162;4.516;2023-11-19T14:23:12;17.20;64.00
72905;DHT22;61048;52.162;4.516;2023-11-19T14:25:39;17.20;63.90
72905;DHT22;61048;52.162;4.516;2023-11-19T14:28:06;17.20;64.00
72905;DHT22;61048;52.162;4.516;2023-11-19T14:30:33;17.20;63.90
72905;DHT22;61048;52.162;4.516;2023-11-19T14:33:00;17.20;63.80
72905;DHT22;61048;52.162;4.516;2023-11-19T14:35:28;17.20;63.80
72905;DHT22;61048;52.162;4.516;2023-11-19T14:37:58;17.20;63.80
72905;DHT22;61048;52.162;4.516;2023-11-19T14:40:26;17.10;63.80
72905;DHT22;61048;52.162;4.516;2023-11-19T14:42:53;17.10;63.80
72905;DHT22;61048;52.162;4.516;2023-11-19T14:45:20;17.10;63.80
72905;DHT22;61048;52.162;4.516;2023-11-19T14:47:48;17.10;63.70
72905;DHT22;61048;52.162;4.516;2023-11-19T14:50:15;17.10;63.80
72905;DHT22;61048;52.162;4.516;2023-11-19T14:52:42;17.10;63.80
72905;DHT22;61048;52.162;4.516;2023-11-19T14:55:09;17.10;63.80
72905;DHT22;61048;52.162;4.516;2023-11-19T14:57:38;17.10;63.80
72905;DHT22;61048;52.162;4.516;2023-11-19T15:00:08;17.10;63.70
72905;DHT22;61048;52.162;4.516;2023-11-19T15:02:39;17.10;63.80
72905;DHT22;61048;52.162;4.516;2023-11-19T15:05:06;17.10;63.80
72905;DHT22;61048;52.162;4.516;2023-11-19T15:07:35;17.10;63.90
72905;DHT22;61048;52.162;4.516;2023-11-19T15:10:02;17.10;63.80
72905;DHT22;61048;52.162;4.516;2023-11-19T15:12:29;17.10;63.80
72905;DHT22;61048;52.162;4.516;2023-11-19T15:14:57;17.10;63.70
72905;DHT22;61048;52.162;4.516;2023-11-19T15:17:24;17.10;63.80
72905;DHT22;61048;52.162;4.516;2023-11-19T15:19:51;17.10;63.80
72905;DHT22;61048;52.162;4.516;2023-11-19T15:22:18;17.10;63.80
72905;DHT22;61048;52.162;4.516;2023-11-19T15:24:45;17.10;64.00
72905;DHT22;61048;52.162;4.516;2023-11-19T15:27:12;17.10;64.00
72905;DHT22;61048;52.162;4.516;2023-11-19T15:29:38;17.00;64.00
72905;DHT22;61048;52.162;4.516;2023-11-19T15:32:07;17.00;64.10
72905;DHT22;61048;52.162;4.516;2023-11-19T15:34:34;17.00;64.20
72905;DHT22;61048;52.162;4.516;2023-11-19T15:37:03;17.00;64.30